Strona główna
METAR-TAF:

METAR-TAF

Lotnisko :

Ellsworth Air Force Base

Rapid City / Ellsworth, Dakota Południowa, Stany Zjednoczone

Szerokość geograficzna: 44-09N, Długość geograficzna: 103-06W, wysokość: 999 m

Aktualna obserwacja pogody

Raport powstał 9 minut temu, godzina 15:56 UTC
Cisza
Temperatura 3°C
Wilgotność 65%
Ciśnienie 1014 hPa
Widzialność: 16.1 km
bezchmurnie

METAR: KRCA 261556Z AUTO 00000KT 10SM CLR 03/M03 A2995 RMK AO2 SLP172 T00281029 $

czas: 09:05 (16:05 UTC)

Prognoza

Raport powstał 18 godziny i 0 minut temu, godzina 22:05 UTC
Prognoza ważna od 24 godzina 22 UTC do 26 godzina 01 UTC
Wiatr 6 kt z kierunków zmiennych
Widzialność: 2711 m
Rozproszone chmury na wysokości 6000 ft

TAF: KRCA 242205Z 2422/2601 VRB06KT 9999 SCT060 QNH2988INS TX03/2422Z TNM02/2504Z LAST NO AMDS AFT 2422 NEXT 2711

Obserwacja i prognoza pogody dla ponad 4000 lotnisk (raport METAR i TAF).

Dostępne stacje oznaczono żółtymi i czerwonymi punktami na mapie.

Najedź kursorem aby zobaczyć nazwę stacji.

Kliknij aby zobaczyć obserwacje i prognozy pogody.

Aby zmienić mapę: kliknij na zielony przycisk z czarnym krzyżykiem, aby powiększyć; na zielony przycisk z myślnikiem, aby pomniejszyć; na zielone strzałki, aby przejść do map sąsiednich.


METAR-TAF: